サンパウロ/グアルーリョス の空港の天気 - METARとTAF

グアルーリョス国際空港 (サンパウロ) ( SBGR / GRU ) - ブラジル サンパウロ州サンパウロ市
飛行場実況気象(Metar)
観測時間05/20 01:00 BRT (05/20 04:00 UTC)
風向・風速静穏 0m/s
視程10km以上
天気現象
なし
気温6℃
湿度93%
気圧1021hPa
METARSBGR 200400Z 00000KT CAVOK 06/05 Q1021
過去の天気等 Google飛行場航空写真 Wunderground天気予報

過去48時間のMETAR

飛行場予報(TAF)
発表時間: 5/19 18:00 BRT (5/19 21:00 UTC)
予報対象時間: 19日21時 BRT ~ 21日3時 BRT
風向・風速南西 3m/s
視程10km以上
全天の4割程度の雲 雲底高度 760m
20日0時 BRT ~ 20日2時 BRT に徐々に
風向・風速東北東 2m/s
20日4時 BRT ~ 20日6時 BRT に徐々に
全天の8割程度の雲 雲底高度 520m
20日6時 BRT から 確率 30% で
全天の8割程度の雲 雲底高度 340m
20日10時 BRT ~ 20日12時 BRT に徐々に
風向・風速南 3m/s
全天の8割程度の雲 雲底高度 760m
20日12時 BRT ~ 20日14時 BRT に徐々に
風向・風速南南東 5m/s
20日16時 BRT ~ 20日18時 BRT に徐々に
全天の4割程度の雲 雲底高度 520m
20日22時 BRT ~ 20日24時 BRT に徐々に
風向・風速東 3m/s
視程6000m
21日0時 BRT ~ 21日2時 BRT に徐々に
視程4000m
天気現象もや
全天の4割程度の雲 雲底高度 180m
TAF SBGR 192100Z 2000/2106 23005KT 9999 SCT025 TN07/2009Z TX18/2018Z
BECMG 2003/2005 07003KT
BECMG 2007/2009 BKN017
PROB30 2009/2012 BKN011
BECMG 2013/2015 19005KT BKN025
BECMG 2015/2017 15010KT
BECMG 2019/2021 SCT017
BECMG 2101/2103 08005KT 6000
BECMG 2103/2105 4000 BR SCT006 RMK PGF